sensor_id;sensor_type;location;lat;lon;timestamp;P1;durP1;ratioP1;P2;durP2;ratioP2
68923;SDS011;55961;52.156;20.942;2023-01-10T00:00:23;63.47;;;22.50;;
68923;SDS011;55961;52.156;20.942;2023-01-10T00:03:11;51.38;;;20.23;;
68923;SDS011;55961;52.156;20.942;2023-01-10T00:05:38;58.47;;;23.15;;
68923;SDS011;55961;52.156;20.942;2023-01-10T00:08:05;51.88;;;19.05;;
68923;SDS011;55961;52.156;20.942;2023-01-10T00:10:32;58.10;;;19.77;;
68923;SDS011;55961;52.156;20.942;2023-01-10T00:12:59;60.13;;;22.03;;
68923;SDS011;55961;52.156;20.942;2023-01-10T00:15:44;61.40;;;21.40;;
68923;SDS011;55961;52.156;20.942;2023-01-10T00:18:10;60.20;;;22.50;;
68923;SDS011;55961;52.156;20.942;2023-01-10T00:20:36;60.78;;;20.40;;
68923;SDS011;55961;52.156;20.942;2023-01-10T00:23:02;65.35;;;22.40;;
68923;SDS011;55961;52.156;20.942;2023-01-10T00:25:29;59.47;;;19.77;;
68923;SDS011;55961;52.156;20.942;2023-01-10T00:27:57;68.95;;;24.83;;
68923;SDS011;55961;52.156;20.942;2023-01-10T00:30:38;56.03;;;21.25;;
68923;SDS011;55961;52.156;20.942;2023-01-10T00:33:05;55.03;;;20.17;;
68923;SDS011;55961;52.156;20.942;2023-01-10T00:35:32;68.43;;;24.20;;
68923;SDS011;55961;52.156;20.942;2023-01-10T00:37:58;47.70;;;18.70;;
68923;SDS011;55961;52.156;20.942;2023-01-10T00:40:30;57.00;;;20.83;;
68923;SDS011;55961;52.156;20.942;2023-01-10T00:42:58;58.28;;;23.00;;
68923;SDS011;55961;52.156;20.942;2023-01-10T00:45:43;54.35;;;20.63;;
68923;SDS011;55961;52.156;20.942;2023-01-10T00:48:11;59.35;;;22.30;;
68923;SDS011;55961;52.156;20.942;2023-01-10T00:50:37;55.67;;;21.53;;
68923;SDS011;55961;52.156;20.942;2023-01-10T00:53:03;62.17;;;22.65;;
68923;SDS011;55961;52.156;20.942;2023-01-10T00:55:29;61.97;;;23.52;;
68923;SDS011;55961;52.156;20.942;2023-01-10T00:57:56;60.95;;;23.35;;
68923;SDS011;55961;52.156;20.942;2023-01-10T01:00:22;61.83;;;22.92;;
68923;SDS011;55961;52.156;20.942;2023-01-10T01:02:48;60.37;;;20.70;;
68923;SDS011;55961;52.156;20.942;2023-01-10T01:05:16;62.13;;;21.45;;
68923;SDS011;55961;52.156;20.942;2023-01-10T01:07:42;62.17;;;21.80;;
68923;SDS011;55961;52.156;20.942;2023-01-10T01:10:09;59.28;;;20.17;;
68923;SDS011;55961;52.156;20.942;2023-01-10T01:15:23;60.97;;;21.95;;
68923;SDS011;55961;52.156;20.942;2023-01-10T01:17:49;62.50;;;22.20;;
68923;SDS011;55961;52.156;20.942;2023-01-10T01:20:16;58.72;;;21.83;;
68923;SDS011;55961;52.156;20.942;2023-01-10T01:22:42;68.85;;;23.67;;
68923;SDS011;55961;52.156;20.942;2023-01-10T01:25:08;63.97;;;24.20;;
68923;SDS011;55961;52.156;20.942;2023-01-10T01:27:34;67.15;;;24.67;;
68923;SDS011;55961;52.156;20.942;2023-01-10T01:30:03;62.22;;;24.05;;
68923;SDS011;55961;52.156;20.942;2023-01-10T01:32:30;90.32;;;29.67;;
68923;SDS011;55961;52.156;20.942;2023-01-10T01:34:56;83.78;;;29.75;;
68923;SDS011;55961;52.156;20.942;2023-01-10T01:37:22;74.83;;;28.20;;
68923;SDS011;55961;52.156;20.942;2023-01-10T01:39:48;76.55;;;26.48;;
68923;SDS011;55961;52.156;20.942;2023-01-10T01:42:20;69.30;;;23.40;;
68923;SDS011;55961;52.156;20.942;2023-01-10T01:47:42;73.45;;;24.75;;
68923;SDS011;55961;52.156;20.942;2023-01-10T01:50:19;72.50;;;26.02;;
68923;SDS011;55961;52.156;20.942;2023-01-10T01:52:52;63.22;;;22.58;;
68923;SDS011;55961;52.156;20.942;2023-01-10T01:55:21;65.33;;;23.70;;
68923;SDS011;55961;52.156;20.942;2023-01-10T01:57:50;59.55;;;22.17;;
68923;SDS011;55961;52.156;20.942;2023-01-10T02:00:18;64.30;;;25.45;;
68923;SDS011;55961;52.156;20.942;2023-01-10T02:02:45;63.35;;;25.20;;
68923;SDS011;55961;52.156;20.942;2023-01-10T02:05:17;69.47;;;26.42;;
68923;SDS011;55961;52.156;20.942;2023-01-10T02:07:46;72.17;;;25.37;;
68923;SDS011;55961;52.156;20.942;2023-01-10T02:12:52;65.82;;;25.92;;
68923;SDS011;55961;52.156;20.942;2023-01-10T02:15:20;65.15;;;24.70;;
68923;SDS011;55961;52.156;20.942;2023-01-10T02:17:46;63.95;;;25.10;;
68923;SDS011;55961;52.156;20.942;2023-01-10T02:20:14;60.83;;;23.97;;
68923;SDS011;55961;52.156;20.942;2023-01-10T02:36:35;67.10;;;24.10;;
68923;SDS011;55961;52.156;20.942;2023-01-10T02:42:07;64.15;;;23.15;;
68923;SDS011;55961;52.156;20.942;2023-01-10T02:44:44;63.80;;;23.67;;
68923;SDS011;55961;52.156;20.942;2023-01-10T02:47:13;64.77;;;23.73;;
68923;SDS011;55961;52.156;20.942;2023-01-10T02:49:42;64.90;;;23.98;;
68923;SDS011;55961;52.156;20.942;2023-01-10T02:52:11;62.35;;;21.73;;
68923;SDS011;55961;52.156;20.942;2023-01-10T02:54:42;61.88;;;23.30;;
68923;SDS011;55961;52.156;20.942;2023-01-10T03:00:05;59.95;;;23.40;;
68923;SDS011;55961;52.156;20.942;2023-01-10T03:08:00;62.00;;;22.95;;
68923;SDS011;55961;52.156;20.942;2023-01-10T03:10:51;63.70;;;23.23;;
68923;SDS011;55961;52.156;20.942;2023-01-10T03:13:30;59.90;;;21.65;;
68923;SDS011;55961;52.156;20.942;2023-01-10T03:16:03;60.58;;;22.80;;
68923;SDS011;55961;52.156;20.942;2023-01-10T03:18:34;63.35;;;24.50;;
68923;SDS011;55961;52.156;20.942;2023-01-10T03:21:05;61.47;;;22.70;;
68923;SDS011;55961;52.156;20.942;2023-01-10T03:23:34;59.67;;;22.80;;
68923;SDS011;55961;52.156;20.942;2023-01-10T03:26:00;63.22;;;22.58;;
68923;SDS011;55961;52.156;20.942;2023-01-10T03:28:29;64.03;;;23.92;;
68923;SDS011;55961;52.156;20.942;2023-01-10T03:31:02;60.20;;;22.25;;
68923;SDS011;55961;52.156;20.942;2023-01-10T03:33:35;62.55;;;23.50;;
68923;SDS011;55961;52.156;20.942;2023-01-10T03:36:45;53.43;;;22.47;;
68923;SDS011;55961;52.156;20.942;2023-01-10T03:47:18;59.40;;;23.05;;
68923;SDS011;55961;52.156;20.942;2023-01-10T03:50:28;63.60;;;22.50;;
68923;SDS011;55961;52.156;20.942;2023-01-10T03:52:49;57.42;;;22.80;;
68923;SDS011;55961;52.156;20.942;2023-01-10T03:55:19;61.47;;;22.00;;
68923;SDS011;55961;52.156;20.942;2023-01-10T03:57:47;62.75;;;23.00;;
68923;SDS011;55961;52.156;20.942;2023-01-10T04:00:13;59.53;;;21.70;;
68923;SDS011;55961;52.156;20.942;2023-01-10T04:02:40;58.67;;;23.70;;
68923;SDS011;55961;52.156;20.942;2023-01-10T04:05:07;64.55;;;22.70;;
68923;SDS011;55961;52.156;20.942;2023-01-10T04:07:33;55.95;;;20.42;;
68923;SDS011;55961;52.156;20.942;2023-01-10T04:09:59;63.60;;;21.75;;
68923;SDS011;55961;52.156;20.942;2023-01-10T04:12:25;63.60;;;22.10;;
68923;SDS011;55961;52.156;20.942;2023-01-10T04:14:52;56.70;;;21.98;;
68923;SDS011;55961;52.156;20.942;2023-01-10T04:17:17;57.38;;;22.88;;
68923;SDS011;55961;52.156;20.942;2023-01-10T04:19:44;63.03;;;21.30;;
68923;SDS011;55961;52.156;20.942;2023-01-10T04:22:10;60.30;;;22.33;;
68923;SDS011;55961;52.156;20.942;2023-01-10T04:24:36;60.88;;;21.02;;
68923;SDS011;55961;52.156;20.942;2023-01-10T04:27:03;62.05;;;21.75;;
68923;SDS011;55961;52.156;20.942;2023-01-10T04:29:29;58.83;;;23.15;;
68923;SDS011;55961;52.156;20.942;2023-01-10T04:31:55;59.10;;;22.63;;
68923;SDS011;55961;52.156;20.942;2023-01-10T04:34:21;61.97;;;21.98;;
68923;SDS011;55961;52.156;20.942;2023-01-10T04:36:47;61.25;;;22.45;;
68923;SDS011;55961;52.156;20.942;2023-01-10T04:39:14;57.88;;;21.80;;
68923;SDS011;55961;52.156;20.942;2023-01-10T04:41:40;53.77;;;19.73;;
68923;SDS011;55961;52.156;20.942;2023-01-10T04:44:06;54.63;;;20.05;;
68923;SDS011;55961;52.156;20.942;2023-01-10T04:46:32;58.95;;;20.40;;
68923;SDS011;55961;52.156;20.942;2023-01-10T04:48:59;54.17;;;21.65;;
68923;SDS011;55961;52.156;20.942;2023-01-10T04:51:37;53.05;;;20.95;;
68923;SDS011;55961;52.156;20.942;2023-01-10T04:54:03;54.40;;;20.60;;
68923;SDS011;55961;52.156;20.942;2023-01-10T04:56:29;50.78;;;20.35;;
68923;SDS011;55961;52.156;20.942;2023-01-10T04:58:55;49.72;;;18.77;;
68923;SDS011;55961;52.156;20.942;2023-01-10T05:01:22;54.53;;;20.80;;
68923;SDS011;55961;52.156;20.942;2023-01-10T05:03:50;58.33;;;21.27;;
68923;SDS011;55961;52.156;20.942;2023-01-10T05:06:16;57.35;;;19.50;;
68923;SDS011;55961;52.156;20.942;2023-01-10T05:08:43;52.22;;;20.17;;
68923;SDS011;55961;52.156;20.942;2023-01-10T05:11:09;56.07;;;21.03;;
68923;SDS011;55961;52.156;20.942;2023-01-10T05:13:36;51.97;;;21.05;;
68923;SDS011;55961;52.156;20.942;2023-01-10T05:16:02;55.58;;;20.25;;
68923;SDS011;55961;52.156;20.942;2023-01-10T05:18:28;53.15;;;20.85;;
68923;SDS011;55961;52.156;20.942;2023-01-10T05:21:27;62.43;;;23.27;;
68923;SDS011;55961;52.156;20.942;2023-01-10T05:23:46;54.10;;;20.92;;
68923;SDS011;55961;52.156;20.942;2023-01-10T05:26:17;57.15;;;21.65;;
68923;SDS011;55961;52.156;20.942;2023-01-10T05:28:46;53.03;;;20.67;;
68923;SDS011;55961;52.156;20.942;2023-01-10T05:31:14;56.22;;;20.48;;
68923;SDS011;55961;52.156;20.942;2023-01-10T05:33:45;54.40;;;21.70;;
68923;SDS011;55961;52.156;20.942;2023-01-10T05:36:11;52.25;;;21.02;;
68923;SDS011;55961;52.156;20.942;2023-01-10T05:38:39;55.25;;;22.30;;
68923;SDS011;55961;52.156;20.942;2023-01-10T05:41:05;59.60;;;21.07;;
68923;SDS011;55961;52.156;20.942;2023-01-10T05:43:31;51.87;;;20.27;;
68923;SDS011;55961;52.156;20.942;2023-01-10T05:45:56;53.70;;;21.75;;
68923;SDS011;55961;52.156;20.942;2023-01-10T05:48:23;57.42;;;21.45;;
68923;SDS011;55961;52.156;20.942;2023-01-10T05:50:49;51.43;;;20.50;;
68923;SDS011;55961;52.156;20.942;2023-01-10T05:53:15;59.60;;;21.20;;
68923;SDS011;55961;52.156;20.942;2023-01-10T05:55:41;56.38;;;22.02;;
68923;SDS011;55961;52.156;20.942;2023-01-10T05:58:08;54.80;;;19.95;;
68923;SDS011;55961;52.156;20.942;2023-01-10T06:00:35;48.70;;;20.10;;
68923;SDS011;55961;52.156;20.942;2023-01-10T06:03:02;52.47;;;22.07;;
68923;SDS011;55961;52.156;20.942;2023-01-10T06:05:28;58.55;;;21.52;;
68923;SDS011;55961;52.156;20.942;2023-01-10T06:07:54;47.08;;;19.55;;
68923;SDS011;55961;52.156;20.942;2023-01-10T06:10:20;54.43;;;21.50;;
68923;SDS011;55961;52.156;20.942;2023-01-10T06:12:46;65.28;;;26.77;;
68923;SDS011;55961;52.156;20.942;2023-01-10T06:15:14;49.38;;;20.73;;
68923;SDS011;55961;52.156;20.942;2023-01-10T06:17:41;53.70;;;21.75;;
68923;SDS011;55961;52.156;20.942;2023-01-10T06:20:09;51.33;;;19.77;;
68923;SDS011;55961;52.156;20.942;2023-01-10T06:22:38;51.93;;;21.03;;
68923;SDS011;55961;52.156;20.942;2023-01-10T06:25:08;52.80;;;21.10;;
68923;SDS011;55961;52.156;20.942;2023-01-10T06:27:40;55.50;;;21.25;;
68923;SDS011;55961;52.156;20.942;2023-01-10T06:30:07;54.75;;;20.48;;
68923;SDS011;55961;52.156;20.942;2023-01-10T06:32:35;52.72;;;20.80;;
68923;SDS011;55961;52.156;20.942;2023-01-10T06:35:01;59.20;;;20.83;;
68923;SDS011;55961;52.156;20.942;2023-01-10T06:37:28;55.25;;;21.10;;
68923;SDS011;55961;52.156;20.942;2023-01-10T06:39:53;59.08;;;21.88;;
68923;SDS011;55961;52.156;20.942;2023-01-10T06:42:19;51.67;;;19.70;;
68923;SDS011;55961;52.156;20.942;2023-01-10T06:44:45;54.17;;;19.92;;
68923;SDS011;55961;52.156;20.942;2023-01-10T06:47:11;54.05;;;20.67;;
68923;SDS011;55961;52.156;20.942;2023-01-10T06:49:37;57.33;;;21.67;;
68923;SDS011;55961;52.156;20.942;2023-01-10T06:52:03;55.30;;;20.35;;
68923;SDS011;55961;52.156;20.942;2023-01-10T06:54:29;53.53;;;21.95;;
68923;SDS011;55961;52.156;20.942;2023-01-10T06:56:55;54.42;;;20.55;;
68923;SDS011;55961;52.156;20.942;2023-01-10T06:59:21;51.50;;;21.53;;
68923;SDS011;55961;52.156;20.942;2023-01-10T07:01:47;59.85;;;22.25;;
68923;SDS011;55961;52.156;20.942;2023-01-10T07:04:12;57.90;;;21.58;;
68923;SDS011;55961;52.156;20.942;2023-01-10T07:06:38;54.53;;;21.25;;
68923;SDS011;55961;52.156;20.942;2023-01-10T07:09:06;53.60;;;21.60;;
68923;SDS011;55961;52.156;20.942;2023-01-10T07:11:33;50.85;;;20.20;;
68923;SDS011;55961;52.156;20.942;2023-01-10T07:13:59;54.58;;;20.35;;
68923;SDS011;55961;52.156;20.942;2023-01-10T07:16:26;57.55;;;20.95;;
68923;SDS011;55961;52.156;20.942;2023-01-10T07:18:52;54.70;;;21.37;;
68923;SDS011;55961;52.156;20.942;2023-01-10T07:21:18;53.67;;;20.77;;
68923;SDS011;55961;52.156;20.942;2023-01-10T07:23:47;50.72;;;20.60;;
68923;SDS011;55961;52.156;20.942;2023-01-10T07:26:14;51.35;;;18.92;;
68923;SDS011;55961;52.156;20.942;2023-01-10T07:28:42;53.25;;;20.23;;
68923;SDS011;55961;52.156;20.942;2023-01-10T07:31:15;51.90;;;20.17;;
68923;SDS011;55961;52.156;20.942;2023-01-10T07:33:46;53.65;;;20.63;;
68923;SDS011;55961;52.156;20.942;2023-01-10T07:36:12;53.58;;;20.23;;
68923;SDS011;55961;52.156;20.942;2023-01-10T07:38:38;48.65;;;19.02;;
68923;SDS011;55961;52.156;20.942;2023-01-10T07:41:04;52.90;;;19.47;;
68923;SDS011;55961;52.156;20.942;2023-01-10T07:43:30;53.92;;;19.58;;
68923;SDS011;55961;52.156;20.942;2023-01-10T07:45:57;47.25;;;18.92;;
68923;SDS011;55961;52.156;20.942;2023-01-10T07:48:24;46.90;;;18.60;;
68923;SDS011;55961;52.156;20.942;2023-01-10T07:50:53;53.80;;;19.83;;
68923;SDS011;55961;52.156;20.942;2023-01-10T07:53:23;52.40;;;18.52;;
68923;SDS011;55961;52.156;20.942;2023-01-10T07:55:50;48.78;;;18.85;;
68923;SDS011;55961;52.156;20.942;2023-01-10T07:58:16;43.38;;;18.23;;
68923;SDS011;55961;52.156;20.942;2023-01-10T08:00:42;45.63;;;17.63;;
68923;SDS011;55961;52.156;20.942;2023-01-10T08:03:10;47.72;;;18.33;;
68923;SDS011;55961;52.156;20.942;2023-01-10T08:05:37;50.70;;;20.40;;
68923;SDS011;55961;52.156;20.942;2023-01-10T08:08:07;47.30;;;18.08;;
68923;SDS011;55961;52.156;20.942;2023-01-10T08:10:34;44.45;;;16.65;;
68923;SDS011;55961;52.156;20.942;2023-01-10T08:13:00;40.27;;;15.90;;
68923;SDS011;55961;52.156;20.942;2023-01-10T08:15:27;43.40;;;16.58;;
68923;SDS011;55961;52.156;20.942;2023-01-10T08:17:53;42.17;;;17.13;;
68923;SDS011;55961;52.156;20.942;2023-01-10T08:20:19;46.28;;;18.13;;
68923;SDS011;55961;52.156;20.942;2023-01-10T08:22:45;47.80;;;19.77;;
68923;SDS011;55961;52.156;20.942;2023-01-10T08:25:11;46.75;;;18.38;;
68923;SDS011;55961;52.156;20.942;2023-01-10T08:27:37;40.63;;;17.50;;
68923;SDS011;55961;52.156;20.942;2023-01-10T08:30:03;45.13;;;17.57;;
68923;SDS011;55961;52.156;20.942;2023-01-10T08:32:30;46.08;;;18.25;;
68923;SDS011;55961;52.156;20.942;2023-01-10T08:34:56;48.33;;;18.55;;
68923;SDS011;55961;52.156;20.942;2023-01-10T08:37:21;42.65;;;16.80;;
68923;SDS011;55961;52.156;20.942;2023-01-10T08:39:47;39.73;;;16.77;;
68923;SDS011;55961;52.156;20.942;2023-01-10T08:42:13;46.40;;;19.15;;
68923;SDS011;55961;52.156;20.942;2023-01-10T08:44:41;47.05;;;18.52;;
68923;SDS011;55961;52.156;20.942;2023-01-10T08:47:07;43.97;;;18.97;;
68923;SDS011;55961;52.156;20.942;2023-01-10T08:49:33;46.67;;;19.20;;
68923;SDS011;55961;52.156;20.942;2023-01-10T08:52:00;43.15;;;18.17;;
68923;SDS011;55961;52.156;20.942;2023-01-10T08:54:27;43.33;;;19.40;;
68923;SDS011;55961;52.156;20.942;2023-01-10T08:56:52;44.27;;;18.23;;
68923;SDS011;55961;52.156;20.942;2023-01-10T08:59:18;43.28;;;17.75;;
68923;SDS011;55961;52.156;20.942;2023-01-10T09:01:44;38.80;;;15.30;;
68923;SDS011;55961;52.156;20.942;2023-01-10T09:04:10;41.67;;;15.83;;
68923;SDS011;55961;52.156;20.942;2023-01-10T09:06:36;45.38;;;16.10;;
68923;SDS011;55961;52.156;20.942;2023-01-10T09:09:02;39.55;;;16.85;;
68923;SDS011;55961;52.156;20.942;2023-01-10T09:11:28;39.80;;;14.98;;
68923;SDS011;55961;52.156;20.942;2023-01-10T09:13:54;43.40;;;16.37;;
68923;SDS011;55961;52.156;20.942;2023-01-10T09:16:20;39.78;;;16.67;;
68923;SDS011;55961;52.156;20.942;2023-01-10T09:18:46;39.45;;;15.95;;
68923;SDS011;55961;52.156;20.942;2023-01-10T09:21:12;40.40;;;16.57;;
68923;SDS011;55961;52.156;20.942;2023-01-10T09:23:38;44.15;;;17.52;;
68923;SDS011;55961;52.156;20.942;2023-01-10T09:26:04;39.65;;;16.35;;
68923;SDS011;55961;52.156;20.942;2023-01-10T09:28:31;40.38;;;16.35;;
68923;SDS011;55961;52.156;20.942;2023-01-10T09:30:57;37.67;;;15.17;;
68923;SDS011;55961;52.156;20.942;2023-01-10T09:33:23;38.00;;;15.30;;
68923;SDS011;55961;52.156;20.942;2023-01-10T09:35:49;39.08;;;16.05;;
68923;SDS011;55961;52.156;20.942;2023-01-10T09:38:16;41.65;;;16.00;;
68923;SDS011;55961;52.156;20.942;2023-01-10T09:40:52;38.25;;;15.82;;
68923;SDS011;55961;52.156;20.942;2023-01-10T09:51:55;39.03;;;15.60;;
68923;SDS011;55961;52.156;20.942;2023-01-10T09:54:24;39.83;;;15.98;;
68923;SDS011;55961;52.156;20.942;2023-01-10T09:57:00;40.37;;;17.33;;
68923;SDS011;55961;52.156;20.942;2023-01-10T09:59:35;39.55;;;15.20;;
68923;SDS011;55961;52.156;20.942;2023-01-10T10:02:12;40.10;;;15.85;;
68923;SDS011;55961;52.156;20.942;2023-01-10T10:04:41;42.10;;;16.95;;
68923;SDS011;55961;52.156;20.942;2023-01-10T10:07:14;41.03;;;16.38;;
68923;SDS011;55961;52.156;20.942;2023-01-10T10:09:42;37.30;;;16.27;;
68923;SDS011;55961;52.156;20.942;2023-01-10T10:12:13;38.78;;;15.88;;
68923;SDS011;55961;52.156;20.942;2023-01-10T10:14:51;39.38;;;15.48;;
68923;SDS011;55961;52.156;20.942;2023-01-10T10:17:38;38.60;;;15.15;;
68923;SDS011;55961;52.156;20.942;2023-01-10T10:20:18;40.13;;;15.53;;
68923;SDS011;55961;52.156;20.942;2023-01-10T10:31:01;41.30;;;16.08;;
68923;SDS011;55961;52.156;20.942;2023-01-10T10:36:02;42.92;;;15.13;;
68923;SDS011;55961;52.156;20.942;2023-01-10T10:38:40;40.55;;;15.90;;
68923;SDS011;55961;52.156;20.942;2023-01-10T10:41:14;45.05;;;16.02;;
68923;SDS011;55961;52.156;20.942;2023-01-10T10:43:51;39.17;;;13.82;;
68923;SDS011;55961;52.156;20.942;2023-01-10T10:46:18;45.43;;;15.20;;
68923;SDS011;55961;52.156;20.942;2023-01-10T10:48:56;39.63;;;15.52;;
68923;SDS011;55961;52.156;20.942;2023-01-10T10:51:26;44.80;;;16.27;;
68923;SDS011;55961;52.156;20.942;2023-01-10T10:54:03;42.38;;;15.77;;
68923;SDS011;55961;52.156;20.942;2023-01-10T10:56:30;41.45;;;15.10;;
68923;SDS011;55961;52.156;20.942;2023-01-10T10:58:57;42.57;;;15.87;;
68923;SDS011;55961;52.156;20.942;2023-01-10T11:01:24;42.72;;;15.38;;
68923;SDS011;55961;52.156;20.942;2023-01-10T11:03:55;40.70;;;15.50;;
68923;SDS011;55961;52.156;20.942;2023-01-10T11:06:33;40.47;;;14.95;;
68923;SDS011;55961;52.156;20.942;2023-01-10T11:09:01;36.88;;;14.93;;
68923;SDS011;55961;52.156;20.942;2023-01-10T11:11:34;44.97;;;17.07;;
68923;SDS011;55961;52.156;20.942;2023-01-10T11:14:04;46.80;;;15.77;;
68923;SDS011;55961;52.156;20.942;2023-01-10T11:16:33;39.42;;;15.50;;
68923;SDS011;55961;52.156;20.942;2023-01-10T11:19:14;39.55;;;14.70;;
68923;SDS011;55961;52.156;20.942;2023-01-10T11:21:56;38.10;;;15.02;;
68923;SDS011;55961;52.156;20.942;2023-01-10T11:24:49;40.80;;;16.33;;
68923;SDS011;55961;52.156;20.942;2023-01-10T11:27:17;36.97;;;13.93;;
68923;SDS011;55961;52.156;20.942;2023-01-10T11:30:02;37.53;;;14.48;;
68923;SDS011;55961;52.156;20.942;2023-01-10T11:35:14;53.25;;;21.08;;
68923;SDS011;55961;52.156;20.942;2023-01-10T11:37:45;42.20;;;16.20;;
68923;SDS011;55961;52.156;20.942;2023-01-10T11:43:47;40.05;;;14.57;;
68923;SDS011;55961;52.156;20.942;2023-01-10T11:46:22;37.42;;;14.20;;
68923;SDS011;55961;52.156;20.942;2023-01-10T11:48:58;38.03;;;14.63;;
68923;SDS011;55961;52.156;20.942;2023-01-10T11:51:33;37.63;;;14.48;;
68923;SDS011;55961;52.156;20.942;2023-01-10T11:54:03;38.10;;;14.93;;
68923;SDS011;55961;52.156;20.942;2023-01-10T11:56:32;39.45;;;15.43;;
68923;SDS011;55961;52.156;20.942;2023-01-10T11:59:11;34.80;;;14.88;;
68923;SDS011;55961;52.156;20.942;2023-01-10T12:01:47;39.10;;;14.57;;
68923;SDS011;55961;52.156;20.942;2023-01-10T12:04:18;38.50;;;16.30;;
68923;SDS011;55961;52.156;20.942;2023-01-10T12:06:46;40.92;;;17.95;;
68923;SDS011;55961;52.156;20.942;2023-01-10T12:12:26;40.25;;;15.15;;
68923;SDS011;55961;52.156;20.942;2023-01-10T12:14:58;37.60;;;13.30;;
68923;SDS011;55961;52.156;20.942;2023-01-10T12:17:44;41.63;;;15.43;;
68923;SDS011;55961;52.156;20.942;2023-01-10T12:20:11;35.75;;;15.20;;
68923;SDS011;55961;52.156;20.942;2023-01-10T12:22:44;45.08;;;20.52;;
68923;SDS011;55961;52.156;20.942;2023-01-10T12:25:19;48.42;;;22.35;;
68923;SDS011;55961;52.156;20.942;2023-01-10T12:27:54;47.20;;;19.53;;
68923;SDS011;55961;52.156;20.942;2023-01-10T12:30:32;38.05;;;15.32;;
68923;SDS011;55961;52.156;20.942;2023-01-10T12:39:02;35.72;;;14.75;;
68923;SDS011;55961;52.156;20.942;2023-01-10T12:45:05;43.28;;;19.60;;
68923;SDS011;55961;52.156;20.942;2023-01-10T12:50:36;39.10;;;17.83;;
68923;SDS011;55961;52.156;20.942;2023-01-10T12:55:54;35.60;;;15.30;;
68923;SDS011;55961;52.156;20.942;2023-01-10T12:58:26;38.08;;;16.38;;
68923;SDS011;55961;52.156;20.942;2023-01-10T13:00:54;36.85;;;15.32;;
68923;SDS011;55961;52.156;20.942;2023-01-10T13:03:24;39.28;;;16.38;;
68923;SDS011;55961;52.156;20.942;2023-01-10T13:05:55;38.67;;;16.35;;
68923;SDS011;55961;52.156;20.942;2023-01-10T13:08:24;36.80;;;15.07;;
68923;SDS011;55961;52.156;20.942;2023-01-10T13:10:52;45.38;;;18.73;;
68923;SDS011;55961;52.156;20.942;2023-01-10T13:21:35;36.37;;;17.07;;
68923;SDS011;55961;52.156;20.942;2023-01-10T13:24:05;40.85;;;17.40;;
68923;SDS011;55961;52.156;20.942;2023-01-10T13:26:56;47.92;;;22.38;;
68923;SDS011;55961;52.156;20.942;2023-01-10T13:29:37;62.10;;;31.00;;
68923;SDS011;55961;52.156;20.942;2023-01-10T13:34:54;40.73;;;19.03;;
68923;SDS011;55961;52.156;20.942;2023-01-10T13:37:36;35.83;;;16.13;;
68923;SDS011;55961;52.156;20.942;2023-01-10T13:40:04;38.20;;;16.95;;
68923;SDS011;55961;52.156;20.942;2023-01-10T13:42:31;41.83;;;17.70;;
68923;SDS011;55961;52.156;20.942;2023-01-10T13:45:31;39.30;;;16.17;;
68923;SDS011;55961;52.156;20.942;2023-01-10T13:48:00;37.53;;;16.00;;
68923;SDS011;55961;52.156;20.942;2023-01-10T14:00:48;34.50;;;14.63;;
68923;SDS011;55961;52.156;20.942;2023-01-10T14:06:31;33.85;;;13.95;;
68923;SDS011;55961;52.156;20.942;2023-01-10T14:14:51;32.17;;;14.50;;
68923;SDS011;55961;52.156;20.942;2023-01-10T14:19:43;42.05;;;16.75;;
68923;SDS011;55961;52.156;20.942;2023-01-10T14:25:39;42.03;;;17.10;;
68923;SDS011;55961;52.156;20.942;2023-01-10T14:28:14;34.73;;;15.37;;
68923;SDS011;55961;52.156;20.942;2023-01-10T14:30:44;31.48;;;15.05;;
68923;SDS011;55961;52.156;20.942;2023-01-10T14:33:27;34.20;;;14.68;;
68923;SDS011;55961;52.156;20.942;2023-01-10T14:35:55;33.88;;;16.33;;
68923;SDS011;55961;52.156;20.942;2023-01-10T14:38:26;33.97;;;13.75;;
68923;SDS011;55961;52.156;20.942;2023-01-10T14:43:37;31.42;;;13.93;;
68923;SDS011;55961;52.156;20.942;2023-01-10T14:46:27;36.13;;;16.42;;
68923;SDS011;55961;52.156;20.942;2023-01-10T14:48:58;38.63;;;16.35;;
68923;SDS011;55961;52.156;20.942;2023-01-10T14:51:28;37.38;;;16.40;;
68923;SDS011;55961;52.156;20.942;2023-01-10T14:54:03;38.97;;;17.67;;
68923;SDS011;55961;52.156;20.942;2023-01-10T14:59:15;34.33;;;15.02;;
68923;SDS011;55961;52.156;20.942;2023-01-10T15:01:47;29.88;;;14.05;;
68923;SDS011;55961;52.156;20.942;2023-01-10T15:04:15;33.40;;;15.20;;
68923;SDS011;55961;52.156;20.942;2023-01-10T15:06:50;36.10;;;15.20;;
68923;SDS011;55961;52.156;20.942;2023-01-10T15:09:18;38.67;;;15.45;;
68923;SDS011;55961;52.156;20.942;2023-01-10T15:11:44;44.75;;;16.13;;
68923;SDS011;55961;52.156;20.942;2023-01-10T15:14:12;47.70;;;17.90;;
68923;SDS011;55961;52.156;20.942;2023-01-10T15:16:45;46.10;;;18.08;;
68923;SDS011;55961;52.156;20.942;2023-01-10T15:19:14;50.37;;;20.50;;
68923;SDS011;55961;52.156;20.942;2023-01-10T15:21:45;47.28;;;18.90;;
68923;SDS011;55961;52.156;20.942;2023-01-10T15:26:56;38.30;;;17.08;;
68923;SDS011;55961;52.156;20.942;2023-01-10T15:29:24;43.60;;;19.90;;
68923;SDS011;55961;52.156;20.942;2023-01-10T15:31:52;62.77;;;25.87;;
68923;SDS011;55961;52.156;20.942;2023-01-10T15:34:23;38.13;;;16.02;;
68923;SDS011;55961;52.156;20.942;2023-01-10T15:36:56;33.30;;;13.18;;
68923;SDS011;55961;52.156;20.942;2023-01-10T15:39:25;39.60;;;16.90;;
68923;SDS011;55961;52.156;20.942;2023-01-10T15:41:55;43.47;;;18.48;;
68923;SDS011;55961;52.156;20.942;2023-01-10T15:44:40;40.77;;;16.53;;
68923;SDS011;55961;52.156;20.942;2023-01-10T15:50:26;39.45;;;15.98;;
68923;SDS011;55961;52.156;20.942;2023-01-10T15:52:59;48.95;;;19.50;;
68923;SDS011;55961;52.156;20.942;2023-01-10T15:58:28;47.33;;;19.83;;
68923;SDS011;55961;52.156;20.942;2023-01-10T16:00:59;42.38;;;17.40;;
68923;SDS011;55961;52.156;20.942;2023-01-10T16:03:38;44.17;;;20.33;;
68923;SDS011;55961;52.156;20.942;2023-01-10T16:06:29;51.53;;;22.20;;
68923;SDS011;55961;52.156;20.942;2023-01-10T16:08:58;60.92;;;28.60;;
68923;SDS011;55961;52.156;20.942;2023-01-10T16:14:22;42.70;;;19.25;;
68923;SDS011;55961;52.156;20.942;2023-01-10T16:16:49;40.38;;;18.10;;
68923;SDS011;55961;52.156;20.942;2023-01-10T16:19:15;40.65;;;17.92;;
68923;SDS011;55961;52.156;20.942;2023-01-10T16:21:42;49.75;;;22.40;;
68923;SDS011;55961;52.156;20.942;2023-01-10T16:24:29;67.53;;;31.07;;
68923;SDS011;55961;52.156;20.942;2023-01-10T16:26:57;72.75;;;33.15;;
68923;SDS011;55961;52.156;20.942;2023-01-10T16:29:27;48.83;;;20.80;;
68923;SDS011;55961;52.156;20.942;2023-01-10T16:31:53;49.72;;;23.98;;
68923;SDS011;55961;52.156;20.942;2023-01-10T16:34:19;48.57;;;21.73;;
68923;SDS011;55961;52.156;20.942;2023-01-10T16:36:45;53.72;;;23.67;;
68923;SDS011;55961;52.156;20.942;2023-01-10T16:39:13;75.75;;;34.08;;
68923;SDS011;55961;52.156;20.942;2023-01-10T16:41:41;48.85;;;22.48;;